Time;durP1;ratioP1;P1;durP2;ratioP2;P2;SDS_P1;SDS_P2;PMS_P1;PMS_P2;Temp;Humidity;BMP_temperature;BMP_pressure;BME280_temperature;BME280_humidity;BME280_pressure;Samples;Min_cycle;Max_cycle;Signal;HPM_P1;HPM_P2
2023/10/27 00:00:55;;;;;;;51.65;23.63;;;;;;;11.95;100.00;98351.03;4992965;28;20546;-69
2023/10/27 00:03:21;;;;;;;56.17;27.52;;;;;;;11.96;100.00;98361.41;4988118;28;20050;-69
2023/10/27 00:05:48;;;;;;;37.53;14.00;;;;;;;11.80;100.00;98328.69;4992444;28;20050;-69
2023/10/27 00:08:15;;;;;;;48.50;18.45;;;;;;;11.88;100.00;98352.47;5000552;28;20415;-69
2023/10/27 00:10:42;;;;;;;31.77;10.60;;;;;;;11.88;100.00;98353.31;4993233;28;20042;-69
2023/10/27 00:13:09;;;;;;;27.67;8.57;;;;;;;11.99;100.00;98359.50;4991427;28;20085;-69
2023/10/27 00:15:35;;;;;;;25.73;7.22;;;;;;;11.90;100.00;98350.59;4995900;28;20440;-69
2023/10/27 00:18:03;;;;;;;27.67;6.80;;;;;;;12.02;100.00;98354.84;4991888;28;20451;-70
2023/10/27 00:20:31;;;;;;;25.30;6.43;;;;;;;12.00;100.00;98369.88;4996248;28;20050;-69
2023/10/27 00:22:58;;;;;;;25.40;6.65;;;;;;;12.08;100.00;98350.91;4992615;28;20053;-69
2023/10/27 00:25:25;;;;;;;31.98;7.20;;;;;;;12.00;100.00;98340.19;4992516;28;20480;-69
2023/10/27 00:27:51;;;;;;;23.08;6.18;;;;;;;11.97;100.00;98362.25;4994658;28;20053;-69
2023/10/27 00:30:18;;;;;;;31.17;7.38;;;;;;;12.06;100.00;98360.69;4991484;28;20050;-70
2023/10/27 00:32:46;;;;;;;26.80;7.50;;;;;;;11.85;100.00;98352.75;4988990;28;20057;-69
2023/10/27 00:35:13;;;;;;;21.85;6.15;;;;;;;11.93;100.00;98347.72;4991283;28;20453;-69
2023/10/27 00:37:40;;;;;;;28.73;6.55;;;;;;;11.99;100.00;98351.63;4994575;28;20411;-69
2023/10/27 00:40:07;;;;;;;22.63;5.05;;;;;;;11.94;100.00;98344.97;4993701;28;20532;-69
2023/10/27 00:42:34;;;;;;;28.00;5.07;;;;;;;11.83;100.00;98331.88;4988564;28;20054;-69
2023/10/27 00:45:01;;;;;;;26.83;5.90;;;;;;;11.87;100.00;98329.84;4990834;28;20129;-69
2023/10/27 00:47:30;;;;;;;26.02;6.03;;;;;;;11.72;100.00;98335.38;4998358;28;20072;-69
2023/10/27 00:49:57;;;;;;;21.08;6.38;;;;;;;11.76;100.00;98331.53;4990313;28;20042;-69
2023/10/27 00:52:25;;;;;;;21.35;5.45;;;;;;;11.94;100.00;98338.91;4990234;28;20690;-69
2023/10/27 00:54:53;;;;;;;27.42;5.57;;;;;;;11.80;100.00;98342.63;4990664;28;20137;-69
2023/10/27 00:57:22;;;;;;;24.45;8.32;;;;;;;11.83;100.00;98329.25;4989173;28;20058;-71
2023/10/27 00:59:53;;;;;;;24.05;5.72;;;;;;;11.87;100.00;98335.09;4988331;28;20046;-69
2023/10/27 01:02:21;;;;;;;26.60;9.00;;;;;;;11.88;100.00;98329.72;4991914;28;20515;-69
2023/10/27 01:04:49;;;;;;;27.05;7.35;;;;;;;11.77;100.00;98325.34;4989587;28;20035;-68
2023/10/27 01:07:16;;;;;;;30.90;8.57;;;;;;;11.86;100.00;98333.41;4990885;28;20487;-67
2023/10/27 01:09:44;;;;;;;25.45;6.85;;;;;;;11.62;100.00;98331.00;4991795;28;20046;-69
2023/10/27 01:12:11;;;;;;;28.45;8.43;;;;;;;11.62;100.00;98321.34;4988346;28;20078;-69
2023/10/27 01:14:38;;;;;;;25.73;7.88;;;;;;;11.63;100.00;98328.22;4989218;28;20056;-69
2023/10/27 01:17:05;;;;;;;31.95;8.45;;;;;;;11.68;100.00;98322.63;4991103;28;20061;-69
2023/10/27 01:19:31;;;;;;;29.63;8.25;;;;;;;11.71;100.00;98315.34;4990633;28;20046;-69
2023/10/27 01:21:58;;;;;;;17.23;6.05;;;;;;;11.76;100.00;98325.47;4992774;28;20381;-69
2023/10/27 01:24:26;;;;;;;22.45;8.57;;;;;;;11.85;100.00;98318.66;4989699;28;20046;-69
2023/10/27 01:26:53;;;;;;;22.38;5.75;;;;;;;11.75;100.00;98323.78;4990074;28;20046;-69
2023/10/27 01:29:22;;;;;;;29.83;6.30;;;;;;;11.68;100.00;98317.38;4990545;28;20069;-69
2023/10/27 01:31:49;;;;;;;23.83;5.60;;;;;;;11.76;100.00;98322.84;4990356;28;20054;-69
2023/10/27 01:34:15;;;;;;;20.45;5.30;;;;;;;11.55;100.00;98318.38;4990418;28;20038;-67
2023/10/27 01:36:42;;;;;;;27.30;7.82;;;;;;;11.63;100.00;98316.91;4992905;28;20054;-68
2023/10/27 01:39:09;;;;;;;20.85;4.55;;;;;;;11.72;100.00;98334.53;4992699;28;20058;-68
2023/10/27 01:41:36;;;;;;;23.00;5.80;;;;;;;11.59;100.00;98317.16;4992661;28;20479;-68
2023/10/27 01:44:03;;;;;;;25.75;8.45;;;;;;;11.76;100.00;98328.91;4991065;28;20057;-67
2023/10/27 01:46:30;;;;;;;24.85;7.47;;;;;;;11.76;100.00;98312.38;4992694;28;20619;-68
2023/10/27 01:48:56;;;;;;;22.45;5.80;;;;;;;11.85;100.00;98318.66;4991157;28;20393;-68
2023/10/27 01:51:23;;;;;;;24.48;8.23;;;;;;;11.82;100.00;98306.59;4990924;28;20054;-68
2023/10/27 01:53:50;;;;;;;18.83;4.50;;;;;;;11.70;100.00;98315.47;4993493;28;20042;-68
2023/10/27 01:56:17;;;;;;;24.70;4.15;;;;;;;11.61;100.00;98308.34;4992150;28;20510;-67
2023/10/27 01:58:46;;;;;;;24.02;5.93;;;;;;;11.66;100.00;98311.44;4993041;28;20400;-68
2023/10/27 02:01:14;;;;;;;13.15;3.72;;;;;;;11.70;100.00;98311.06;4996001;28;20054;-68
2023/10/27 02:03:41;;;;;;;22.10;5.28;;;;;;;11.62;100.00;98320.53;4985302;28;20152;-68
2023/10/27 02:06:08;;;;;;;22.05;5.55;;;;;;;11.42;100.00;98299.38;4989443;28;20078;-68
2023/10/27 02:08:35;;;;;;;36.38;14.77;;;;;;;11.72;100.00;98313.56;4992595;28;20049;-68
2023/10/27 02:11:03;;;;;;;26.02;7.70;;;;;;;11.78;100.00;98307.81;4995554;28;20359;-68
2023/10/27 02:13:29;;;;;;;20.90;5.40;;;;;;;11.66;100.00;98295.72;4992549;28;20806;-68
2023/10/27 02:15:56;;;;;;;23.23;5.75;;;;;;;11.53;100.00;98291.47;4998089;28;20061;-68
2023/10/27 02:18:23;;;;;;;18.70;5.68;;;;;;;11.60;100.00;98297.03;4997172;28;20335;-68
2023/10/27 02:20:50;;;;;;;22.83;5.63;;;;;;;11.74;100.00;98302.00;4993968;28;20395;-68
2023/10/27 02:23:17;;;;;;;20.25;5.15;;;;;;;11.64;100.00;98302.88;4988593;28;20057;-68
2023/10/27 02:25:44;;;;;;;20.55;3.92;;;;;;;11.66;100.00;98295.72;4990029;28;20050;-68
2023/10/27 02:28:11;;;;;;;23.42;4.05;;;;;;;11.64;100.00;98300.25;4994435;28;20408;-68
2023/10/27 02:30:37;;;;;;;18.63;4.72;;;;;;;11.59;100.00;98293.56;4990121;28;20100;-68
2023/10/27 02:33:04;;;;;;;20.27;3.80;;;;;;;11.58;100.00;98299.78;4992340;28;20041;-68
2023/10/27 02:35:31;;;;;;;20.05;4.32;;;;;;;11.57;100.00;98292.88;4996889;28;20042;-68
2023/10/27 02:37:58;;;;;;;17.58;4.68;;;;;;;11.58;100.00;98294.53;4989023;28;20065;-68
2023/10/27 02:40:25;;;;;;;17.85;4.05;;;;;;;11.66;100.00;98285.22;4990517;28;20054;-68
2023/10/27 02:42:51;;;;;;;16.27;4.22;;;;;;;11.54;100.00;98289.66;4990731;28;20097;-68
2023/10/27 02:45:19;;;;;;;23.17;5.25;;;;;;;11.52;100.00;98287.16;4995703;28;20046;-68
2023/10/27 02:47:46;;;;;;;20.85;4.72;;;;;;;11.55;100.00;98297.41;4998962;28;20054;-68
2023/10/27 02:50:13;;;;;;;18.27;4.63;;;;;;;11.57;100.00;98285.00;4995518;28;20495;-68
2023/10/27 02:52:40;;;;;;;24.73;5.00;;;;;;;11.66;100.00;98283.44;4986406;28;20050;-68
2023/10/27 02:55:07;;;;;;;22.70;4.50;;;;;;;11.50;100.00;98288.25;4990107;28;20053;-68
2023/10/27 02:57:33;;;;;;;20.27;4.43;;;;;;;11.59;100.00;98280.47;4990442;28;20088;-68
2023/10/27 03:00:00;;;;;;;24.98;4.85;;;;;;;11.60;100.00;98291.81;4992863;28;20093;-68
2023/10/27 03:02:27;;;;;;;17.08;4.78;;;;;;;11.70;100.00;98282.22;4987507;28;20073;-68
2023/10/27 03:04:57;;;;;;;19.35;4.63;;;;;;;11.63;100.00;98282.84;4991348;28;20046;-68
2023/10/27 03:07:24;;;;;;;19.10;3.97;;;;;;;11.74;100.00;98291.50;4996858;28;20050;-68
2023/10/27 03:09:51;;;;;;;21.30;4.65;;;;;;;11.76;100.00;98283.53;4993755;28;20392;-68
2023/10/27 03:12:19;;;;;;;20.27;5.00;;;;;;;11.61;100.00;98269.88;4994493;28;20065;-68
2023/10/27 03:14:46;;;;;;;18.15;3.70;;;;;;;11.60;100.00;98276.09;4997734;28;20108;-68
2023/10/27 03:17:12;;;;;;;22.33;4.53;;;;;;;11.66;100.00;98278.19;4990901;28;20050;-68
2023/10/27 03:19:39;;;;;;;22.50;4.28;;;;;;;11.80;100.00;98284.13;4992735;28;20070;-68
2023/10/27 03:22:06;;;;;;;23.90;4.55;;;;;;;11.70;100.00;98281.41;4999390;28;20058;-68
2023/10/27 03:24:32;;;;;;;16.13;3.60;;;;;;;11.56;100.00;98279.88;4992699;28;20061;-68
2023/10/27 03:26:59;;;;;;;17.58;4.35;;;;;;;11.67;100.00;98276.41;4995907;28;20077;-68
2023/10/27 03:29:27;;;;;;;16.63;3.60;;;;;;;11.73;100.00;98268.88;4997714;28;20046;-68
2023/10/27 03:31:54;;;;;;;26.30;4.78;;;;;;;11.63;100.00;98275.00;4992285;28;20054;-68
2023/10/27 03:34:21;;;;;;;30.98;10.68;;;;;;;11.67;100.00;98273.78;4992422;28;20049;-68
2023/10/27 03:36:47;;;;;;;36.45;13.52;;;;;;;11.55;100.00;98265.13;4995161;28;20392;-68
2023/10/27 03:39:14;;;;;;;44.33;16.00;;;;;;;11.70;100.00;98269.13;4993349;28;20419;-68
2023/10/27 03:41:41;;;;;;;33.47;12.80;;;;;;;11.75;100.00;98285.31;4993526;28;20054;-68
2023/10/27 03:44:09;;;;;;;42.00;16.58;;;;;;;11.51;100.00;98274.19;4993414;28;20042;-68
2023/10/27 03:46:35;;;;;;;38.53;14.95;;;;;;;11.54;100.00;98272.19;4992954;28;20046;-68
2023/10/27 03:49:02;;;;;;;39.72;15.88;;;;;;;11.64;100.00;98260.94;4995536;28;20058;-68
2023/10/27 03:51:29;;;;;;;23.88;8.52;;;;;;;11.62;100.00;98258.44;4993321;28;20550;-68
2023/10/27 03:53:55;;;;;;;38.08;17.85;;;;;;;11.55;100.00;98254.66;4991393;28;20057;-68
2023/10/27 03:56:22;;;;;;;27.75;9.13;;;;;;;11.68;100.00;98265.78;4992862;28;20569;-68
2023/10/27 03:58:49;;;;;;;35.63;12.23;;;;;;;11.52;100.00;98262.75;4992475;28;20233;-68
2023/10/27 04:01:16;;;;;;;29.15;7.68;;;;;;;11.61;100.00;98274.28;4989939;28;20402;-68
2023/10/27 04:03:42;;;;;;;26.40;7.25;;;;;;;11.53;100.00;98267.88;4997732;28;20046;-67
2023/10/27 04:06:11;;;;;;;25.77;7.25;;;;;;;11.62;100.00;98279.41;4991891;28;20129;-68
2023/10/27 04:08:38;;;;;;;25.77;5.97;;;;;;;11.59;100.00;98272.59;5002294;28;20320;-67
2023/10/27 04:11:04;;;;;;;22.70;6.13;;;;;;;11.63;100.00;98275.00;4992495;28;20050;-68
2023/10/27 04:13:31;;;;;;;33.47;7.18;;;;;;;11.45;100.00;98272.06;4992746;28;20077;-68
2023/10/27 04:15:58;;;;;;;27.35;7.95;;;;;;;11.44;100.00;98278.25;4991894;28;20050;-69
2023/10/27 04:18:24;;;;;;;22.23;4.47;;;;;;;11.43;100.00;98284.47;4992517;28;20048;-68
2023/10/27 04:20:51;;;;;;;23.02;4.85;;;;;;;11.64;100.00;98287.16;4990703;28;20385;-68
2023/10/27 04:23:18;;;;;;;20.50;5.70;;;;;;;11.70;100.00;98274.34;4991157;28;20053;-69
2023/10/27 04:25:45;;;;;;;26.10;7.00;;;;;;;11.45;100.00;98298.28;4992467;28;20038;-68
2023/10/27 04:28:11;;;;;;;31.77;11.82;;;;;;;11.47;100.00;98284.06;4991815;28;20049;-68
2023/10/27 04:30:38;;;;;;;27.92;7.18;;;;;;;11.51;100.00;98300.38;4993013;28;20050;-68
2023/10/27 04:33:05;;;;;;;21.88;5.47;;;;;;;11.55;100.00;98296.59;4991537;28;20046;-68
2023/10/27 04:35:32;;;;;;;23.00;5.72;;;;;;;11.47;100.00;98294.56;4990893;28;20050;-67
2023/10/27 04:37:59;;;;;;;24.10;6.70;;;;;;;11.56;100.00;98290.38;4998901;28;20141;-68
2023/10/27 04:40:28;;;;;;;18.33;5.45;;;;;;;11.32;100.00;98280.09;4991386;28;20057;-68
2023/10/27 04:42:58;;;;;;;22.00;5.50;;;;;;;11.62;100.00;98292.50;4991589;28;20472;-68
2023/10/27 04:45:25;;;;;;;22.33;5.30;;;;;;;11.36;100.00;98289.34;4991862;28;20054;-68
2023/10/27 04:47:52;;;;;;;23.88;4.55;;;;;;;11.45;100.00;98282.56;4990607;28;20512;-68
2023/10/27 04:50:19;;;;;;;22.58;5.18;;;;;;;11.48;100.00;98272.66;4991413;28;20054;-69
2023/10/27 04:52:46;;;;;;;22.77;4.68;;;;;;;11.36;100.00;98286.75;4992278;28;20051;-68
2023/10/27 04:55:13;;;;;;;16.95;4.90;;;;;;;11.44;100.00;98288.72;4991685;28;20133;-68
2023/10/27 04:57:41;;;;;;;26.45;5.07;;;;;;;11.52;100.00;98286.34;4990835;28;20058;-68
2023/10/27 05:00:09;;;;;;;20.15;3.90;;;;;;;11.63;100.00;98295.97;4997905;28;20542;-68
2023/10/27 05:02:36;;;;;;;22.15;4.38;;;;;;;11.48;100.00;98285.75;4988382;28;20047;-68
2023/10/27 05:05:03;;;;;;;19.33;4.20;;;;;;;11.36;100.00;98292.81;4996211;28;20044;-68
2023/10/27 05:07:30;;;;;;;25.20;3.78;;;;;;;11.47;100.00;98285.88;4994406;28;20097;-68
2023/10/27 05:09:56;;;;;;;21.83;3.75;;;;;;;11.58;100.00;98289.31;4995403;28;20112;-69
2023/10/27 05:12:23;;;;;;;29.70;5.03;;;;;;;11.31;100.00;98291.50;4991441;28;20077;-68
2023/10/27 05:14:50;;;;;;;18.88;4.63;;;;;;;11.46;100.00;98290.28;4992046;28;20042;-68
2023/10/27 05:17:17;;;;;;;16.98;3.70;;;;;;;11.55;100.00;98291.34;4994374;28;20057;-68
2023/10/27 05:19:44;;;;;;;23.98;5.15;;;;;;;11.45;100.00;98286.00;4990685;28;20054;-68
2023/10/27 05:22:13;;;;;;;23.48;5.13;;;;;;;11.48;100.00;98290.19;4985147;28;20448;-68
2023/10/27 05:24:40;;;;;;;25.08;5.05;;;;;;;11.37;100.00;98304.97;4991279;28;20050;-68
2023/10/27 05:27:07;;;;;;;24.95;4.47;;;;;;;11.43;100.00;98297.56;4990729;28;20307;-68
2023/10/27 05:29:34;;;;;;;36.17;4.75;;;;;;;11.58;100.00;98304.22;4996510;28;20057;-68
2023/10/27 05:32:01;;;;;;;22.52;3.97;;;;;;;11.49;100.00;98297.91;4990122;28;20141;-68
2023/10/27 05:34:28;;;;;;;18.17;4.32;;;;;;;11.53;100.00;98290.63;4995522;28;20050;-68
2023/10/27 05:36:57;;;;;;;21.60;4.50;;;;;;;11.42;100.00;98306.38;4998840;28;20050;-68
2023/10/27 05:39:26;;;;;;;22.65;4.43;;;;;;;11.31;100.00;98299.38;4992709;28;20050;-68
2023/10/27 05:41:53;;;;;;;17.73;3.90;;;;;;;11.37;100.00;98285.78;4995939;28;20420;-68
2023/10/27 05:44:20;;;;;;;19.08;4.05;;;;;;;11.45;100.00;98290.41;4990522;28;20054;-68
2023/10/27 05:46:47;;;;;;;17.90;3.47;;;;;;;11.61;100.00;98284.78;4996442;28;20057;-68
2023/10/27 05:49:14;;;;;;;27.83;4.10;;;;;;;11.44;100.00;98286.13;4990681;28;20658;-67
2023/10/27 05:51:40;;;;;;;21.35;4.43;;;;;;;11.27;100.00;98297.94;4992562;28;20050;-69
2023/10/27 05:54:07;;;;;;;18.13;4.00;;;;;;;11.47;100.00;98297.19;4984513;28;20109;-68
2023/10/27 05:56:34;;;;;;;25.30;4.18;;;;;;;11.49;100.00;98286.56;4990555;28;20213;-68
2023/10/27 05:59:00;;;;;;;19.80;3.70;;;;;;;11.43;100.00;98279.22;4990409;28;20046;-68
2023/10/27 06:01:27;;;;;;;22.17;4.70;;;;;;;11.48;100.00;98291.00;4992240;28;20049;-68
2023/10/27 06:03:57;;;;;;;25.13;4.10;;;;;;;11.48;100.00;98277.91;4997403;28;20057;-69
2023/10/27 06:06:25;;;;;;;17.92;6.30;;;;;;;11.43;100.00;98271.38;4990283;28;20421;-69
2023/10/27 06:08:52;;;;;;;25.42;5.28;;;;;;;11.51;100.00;98284.66;4991090;28;20046;-68
2023/10/27 06:11:19;;;;;;;23.77;5.32;;;;;;;11.27;100.00;98274.38;4990836;28;20396;-68
2023/10/27 06:13:46;;;;;;;21.17;4.57;;;;;;;11.17;100.00;98284.75;4996049;28;20140;-68
2023/10/27 06:16:13;;;;;;;18.60;3.65;;;;;;;11.38;100.00;98298.78;4983287;28;20053;-68
2023/10/27 06:18:39;;;;;;;21.00;3.95;;;;;;;11.37;100.00;98294.47;4992318;28;20590;-68
2023/10/27 06:21:06;;;;;;;20.13;3.83;;;;;;;11.46;100.00;98292.91;4990572;28;20514;-68
2023/10/27 06:23:33;;;;;;;24.45;4.97;;;;;;;11.46;100.00;98298.16;4986442;28;20057;-68
2023/10/27 06:26:00;;;;;;;25.23;4.57;;;;;;;11.42;100.00;98301.97;4991180;28;20074;-68
2023/10/27 06:28:27;;;;;;;20.98;3.95;;;;;;;11.39;100.00;98310.09;4989259;28;20488;-68
2023/10/27 06:30:53;;;;;;;17.15;3.70;;;;;;;11.34;100.00;98296.50;4994258;28;20521;-69
2023/10/27 06:33:22;;;;;;;18.65;4.18;;;;;;;11.33;100.00;98316.66;4989622;28;20047;-68
2023/10/27 06:35:49;;;;;;;21.05;4.45;;;;;;;11.28;100.00;98299.59;4993637;28;20050;-68
2023/10/27 06:38:16;;;;;;;20.65;4.47;;;;;;;11.29;100.00;98273.28;5000166;28;20518;-68
2023/10/27 06:40:42;;;;;;;22.83;5.47;;;;;;;11.52;100.00;98302.88;4994933;28;20065;-68
2023/10/27 06:43:09;;;;;;;22.38;4.50;;;;;;;11.47;100.00;98298.97;4992446;28;20046;-68
2023/10/27 06:45:36;;;;;;;21.65;4.57;;;;;;;11.57;100.00;98298.13;4999995;28;20108;-69
2023/10/27 06:48:03;;;;;;;18.73;4.22;;;;;;;11.45;100.00;98298.28;5002365;28;20496;-69
2023/10/27 06:50:29;;;;;;;18.77;4.45;;;;;;;11.42;100.00;98304.59;4992578;28;20112;-70
2023/10/27 06:52:56;;;;;;;20.48;5.75;;;;;;;11.28;100.00;98316.19;4991361;28;20065;-68
2023/10/27 06:55:23;;;;;;;23.67;4.50;;;;;;;11.21;100.00;98318.44;4993628;28;20496;-69
2023/10/27 06:57:50;;;;;;;26.23;4.80;;;;;;;11.20;100.00;98301.03;4993218;28;20050;-69
2023/10/27 07:00:16;;;;;;;27.35;4.78;;;;;;;11.12;100.00;98331.41;4999260;28;20054;-69
2023/10/27 07:02:43;;;;;;;25.38;4.40;;;;;;;11.23;100.00;98325.34;4992813;28;20069;-68
2023/10/27 07:05:23;;;;;;;27.17;4.28;;;;;;;11.27;100.00;98326.78;4992553;28;20050;-68
2023/10/27 07:07:51;;;;;;;25.73;5.05;;;;;;;11.35;100.00;98324.34;4992728;28;20053;-68
2023/10/27 07:10:18;;;;;;;25.05;4.53;;;;;;;11.26;100.00;98314.63;4997457;28;20563;-68
2023/10/27 07:12:45;;;;;;;23.60;4.45;;;;;;;11.32;100.00;98335.09;4990334;28;20050;-68
2023/10/27 07:15:13;;;;;;;24.27;3.60;;;;;;;11.44;100.00;98333.28;4996611;28;20050;-68
2023/10/27 07:17:43;;;;;;;16.88;4.20;;;;;;;11.43;100.00;98334.25;4994207;28;20535;-69
2023/10/27 07:20:10;;;;;;;19.70;4.65;;;;;;;11.38;100.00;98342.47;4992937;28;20050;-69
2023/10/27 07:22:37;;;;;;;23.38;4.80;;;;;;;11.39;100.00;98344.97;4990884;28;20061;-69
2023/10/27 07:25:04;;;;;;;23.63;3.88;;;;;;;11.12;100.00;98353.22;4993225;28;20073;-69
2023/10/27 07:27:32;;;;;;;22.98;3.65;;;;;;;11.25;100.00;98349.63;4993161;28;20058;-69
2023/10/27 07:29:59;;;;;;;15.73;3.22;;;;;;;11.33;100.00;98345.47;4992298;28;20057;-68
2023/10/27 07:32:26;;;;;;;17.13;4.63;;;;;;;11.22;100.00;98358.56;4991434;28;20457;-68
2023/10/27 07:34:52;;;;;;;26.42;5.15;;;;;;;11.34;100.00;98351.53;4991868;28;20057;-68
2023/10/27 07:37:21;;;;;;;19.65;4.00;;;;;;;11.37;100.00;98333.78;4992462;28;20066;-68
2023/10/27 07:39:48;;;;;;;18.83;4.03;;;;;;;11.42;100.00;98335.19;4990369;28;20050;-68
2023/10/27 07:42:15;;;;;;;23.80;3.63;;;;;;;11.61;100.00;98326.69;4990650;28;20069;-69
2023/10/27 07:44:42;;;;;;;20.58;4.65;;;;;;;11.42;100.00;98336.03;4991741;28;20480;-68
2023/10/27 07:47:09;;;;;;;20.63;4.15;;;;;;;11.46;100.00;98300.78;4992388;28;20069;-69
2023/10/27 07:49:35;;;;;;;26.23;5.22;;;;;;;11.59;100.00;98339.94;4990762;28;20056;-69
2023/10/27 07:52:03;;;;;;;23.58;4.35;;;;;;;11.64;100.00;98345.63;4991480;28;20082;-69
2023/10/27 07:54:31;;;;;;;18.52;5.03;;;;;;;11.66;100.00;98343.72;4992114;28;20133;-69
2023/10/27 07:56:59;;;;;;;21.65;3.92;;;;;;;11.44;100.00;98335.91;4986921;28;20138;-69
2023/10/27 07:59:27;;;;;;;23.40;4.80;;;;;;;11.42;100.00;98349.16;4990427;28;20051;-69
2023/10/27 08:01:57;;;;;;;18.38;4.38;;;;;;;11.36;100.00;98360.91;4989874;28;20061;-69
2023/10/27 08:04:27;;;;;;;24.30;4.97;;;;;;;11.32;100.00;98354.25;4987141;28;20137;-69
2023/10/27 08:06:54;;;;;;;23.75;5.05;;;;;;;11.23;100.00;98362.84;4986254;28;20468;-69
2023/10/27 08:09:21;;;;;;;20.73;4.40;;;;;;;11.21;100.00;98354.28;4992475;28;20438;-69
2023/10/27 08:11:49;;;;;;;25.08;4.63;;;;;;;11.30;100.00;98371.06;4990048;28;20051;-68
2023/10/27 08:14:16;;;;;;;18.23;3.47;;;;;;;11.33;100.00;98360.31;4992051;28;20110;-69
2023/10/27 08:16:44;;;;;;;20.92;4.90;;;;;;;11.06;100.00;98358.09;4989851;28;20046;-69
2023/10/27 08:19:11;;;;;;;23.90;4.28;;;;;;;11.23;100.00;98355.00;4990425;28;20046;-69
2023/10/27 08:21:40;;;;;;;22.92;4.38;;;;;;;11.39;100.00;98357.25;4985059;28;20141;-69
2023/10/27 08:24:08;;;;;;;18.90;3.20;;;;;;;11.38;100.00;98364.28;4991431;28;20133;-69
2023/10/27 08:26:35;;;;;;;29.50;5.00;;;;;;;11.21;100.00;98368.19;4990920;28;20054;-68
2023/10/27 08:29:16;;;;;;;14.18;3.90;;;;;;;11.35;100.00;98366.28;4990530;28;20073;-67
2023/10/27 08:31:42;;;;;;;19.50;4.85;;;;;;;11.21;100.00;98370.00;4983968;28;20050;-67
2023/10/27 08:34:11;;;;;;;26.63;4.68;;;;;;;11.21;100.00;98367.38;4991889;28;20065;-68
2023/10/27 08:36:39;;;;;;;21.75;4.93;;;;;;;11.33;100.00;98371.66;4986353;28;20221;-67
2023/10/27 08:39:06;;;;;;;16.65;4.43;;;;;;;11.28;100.00;98363.31;4991715;28;20469;-67
2023/10/27 08:41:36;;;;;;;26.15;5.63;;;;;;;11.12;100.00;98355.84;4990364;28;20054;-67
2023/10/27 08:44:06;;;;;;;28.17;5.32;;;;;;;11.11;100.00;98377.72;4982331;28;20469;-67
2023/10/27 08:46:51;;;;;;;18.75;3.78;;;;;;;11.09;100.00;98384.03;4985262;28;20433;-67
2023/10/27 08:49:18;;;;;;;22.10;3.72;;;;;;;11.04;100.00;98373.09;4987176;28;20051;-67
2023/10/27 08:51:46;;;;;;;16.05;3.92;;;;;;;11.13;100.00;98380.22;4982840;28;20046;-68
2023/10/27 08:54:12;;;;;;;19.98;4.05;;;;;;;11.19;100.00;98372.72;4983820;28;20070;-68
2023/10/27 08:56:39;;;;;;;20.88;4.07;;;;;;;11.16;100.00;98367.72;4983804;28;20477;-68
2023/10/27 08:59:09;;;;;;;21.58;3.97;;;;;;;11.24;100.00;98372.34;4982403;28;20049;-68
2023/10/27 09:01:36;;;;;;;16.98;3.70;;;;;;;11.39;100.00;98367.72;4984659;28;20133;-68
2023/10/27 09:04:06;;;;;;;21.73;3.72;;;;;;;11.29;100.00;98367.59;4987448;28;20054;-68
2023/10/27 09:06:37;;;;;;;16.75;3.08;;;;;;;11.14;100.00;98360.94;4989518;28;20483;-67
2023/10/27 09:09:11;;;;;;;13.73;2.63;;;;;;;11.13;100.00;98364.50;4982834;28;20047;-67
2023/10/27 09:11:47;;;;;;;20.00;3.88;;;;;;;11.15;100.00;98363.44;4984842;28;20046;-68
2023/10/27 09:14:20;;;;;;;12.60;2.70;;;;;;;11.17;100.00;98374.66;4988427;28;20457;-67
2023/10/27 09:16:47;;;;;;;16.00;3.45;;;;;;;11.34;100.00;98369.88;4985927;28;20057;-66
2023/10/27 09:19:24;;;;;;;19.30;3.70;;;;;;;11.44;100.00;98368.19;4987247;28;20050;-67
2023/10/27 09:21:52;;;;;;;19.83;4.32;;;;;;;11.53;100.00;98364.84;4987098;28;20142;-67
2023/10/27 09:24:24;;;;;;;16.10;4.07;;;;;;;11.45;100.00;98363.78;4986071;28;20503;-67
2023/10/27 09:26:52;;;;;;;30.75;4.82;;;;;;;11.39;100.00;98362.47;4988221;28;20047;-67
2023/10/27 09:29:19;;;;;;;15.77;3.72;;;;;;;11.35;100.00;98363.66;4989127;28;20396;-67
2023/10/27 09:31:46;;;;;;;18.48;3.92;;;;;;;11.29;100.00;98367.59;4986534;28;20046;-67
2023/10/27 09:34:23;;;;;;;13.35;3.65;;;;;;;11.23;100.00;98368.09;4984421;28;20061;-67
2023/10/27 09:36:58;;;;;;;21.02;3.50;;;;;;;11.23;100.00;98362.84;4999860;28;20046;-67
2023/10/27 09:39:25;;;;;;;17.55;5.95;;;;;;;11.34;100.00;98375.94;4984771;28;20046;-67
2023/10/27 09:41:59;;;;;;;30.42;14.13;;;;;;;11.46;100.00;98368.06;4986784;28;20057;-67
2023/10/27 09:44:40;;;;;;;50.92;21.55;;;;;;;11.27;100.00;98364.25;4980295;28;20125;-67
2023/10/27 09:47:15;;;;;;;27.27;12.43;;;;;;;11.50;100.00;98372.94;4974994;28;20051;-67
2023/10/27 09:49:49;;;;;;;35.83;15.70;;;;;;;11.63;100.00;98353.63;4985153;28;20051;-67
2023/10/27 09:52:20;;;;;;;47.75;19.27;;;;;;;11.56;100.00;98354.13;4989197;28;20049;-67
2023/10/27 09:54:48;;;;;;;21.13;7.88;;;;;;;11.41;100.00;98365.81;4986713;28;20057;-67
2023/10/27 09:57:15;;;;;;;16.65;4.90;;;;;;;11.45;100.00;98374.25;4989315;28;20133;-67
2023/10/27 09:59:42;;;;;;;19.50;7.22;;;;;;;11.35;100.00;98369.75;4987742;28;20058;-67
2023/10/27 10:02:10;;;;;;;15.55;5.57;;;;;;;11.17;100.00;98369.41;4987044;28;20100;-68
2023/10/27 10:04:52;;;;;;;17.80;5.75;;;;;;;11.33;100.00;98374.28;4985961;28;20047;-68
2023/10/27 10:07:41;;;;;;;14.93;4.80;;;;;;;11.33;100.00;98369.03;4990291;28;20047;-67
2023/10/27 10:10:22;;;;;;;18.83;6.55;;;;;;;11.27;100.00;98368.69;4990265;28;20585;-67
2023/10/27 10:13:14;;;;;;;22.63;5.35;;;;;;;11.47;100.00;98367.09;4987050;28;20052;-67
2023/10/27 10:15:42;;;;;;;15.80;4.82;;;;;;;11.55;100.00;98365.53;4983443;28;20065;-67
2023/10/27 10:18:45;;;;;;;15.07;5.47;;;;;;;11.79;100.00;98364.53;4991430;28;20068;-67
2023/10/27 10:21:30;;;;;;;18.38;4.50;;;;;;;11.83;100.00;98363.34;4973089;28;20047;-67
2023/10/27 10:24:03;;;;;;;18.27;4.28;;;;;;;11.81;100.00;98367.88;4987809;28;20051;-67
2023/10/27 10:26:49;;;;;;;;;;;;;;;11.93;100.00;98361.69;4989929;28;20449;-67
2023/10/27 10:29:27;;;;;;;21.58;4.47;;;;;;;11.75;100.00;98357.88;5000599;28;19945;-67
2023/10/27 10:32:30;;;;;;;20.75;4.43;;;;;;;11.86;100.00;98376.19;4983124;28;20374;-67
2023/10/27 10:35:21;;;;;;;17.52;4.60;;;;;;;11.88;100.00;98381.31;4998844;28;20078;-67
2023/10/27 10:37:49;;;;;;;14.05;4.05;;;;;;;11.95;100.00;98372.03;4988983;28;20512;-67
2023/10/27 10:40:23;;;;;;;13.80;4.03;;;;;;;11.92;100.00;98344.28;4989007;28;20467;-67
2023/10/27 10:43:20;;;;;;;16.50;3.90;;;;;;;11.83;100.00;98365.13;4985398;28;20499;-67
2023/10/27 10:46:00;;;;;;;17.25;4.80;;;;;;;12.08;100.00;98370.09;4988038;28;20353;-67
2023/10/27 10:48:29;;;;;;;16.13;4.57;;;;;;;12.05;100.00;98359.00;4989132;28;20057;-67
2023/10/27 10:51:03;;;;;;;18.25;5.97;;;;;;;11.92;100.00;98349.53;4987782;28;20058;-67
2023/10/27 10:53:30;;;;;;;21.45;4.78;;;;;;;11.94;100.00;98359.88;4987880;28;20054;-67
2023/10/27 10:55:59;;;;;;;22.77;6.70;;;;;;;11.89;100.00;98343.66;4985946;28;20043;-67
2023/10/27 10:58:26;;;;;;;25.83;10.75;;;;;;;11.95;100.00;98370.25;4989211;28;20141;-67
2023/10/27 11:00:55;;;;;;;19.60;6.28;;;;;;;11.96;100.00;98371.09;4988625;28;20125;-67
2023/10/27 11:03:24;;;;;;;15.65;6.20;;;;;;;11.94;100.00;98359.88;4984209;28;20081;-67
2023/10/27 11:05:54;;;;;;;11.52;3.15;;;;;;;11.82;100.00;98373.94;4988480;28;20508;-67
2023/10/27 11:08:24;;;;;;;14.70;3.60;;;;;;;12.02;100.00;98357.44;4987892;28;20395;-67
2023/10/27 11:11:09;;;;;;;20.90;6.75;;;;;;;12.03;100.00;98355.69;4989150;28;20051;-67
2023/10/27 11:13:46;;;;;;;16.45;5.80;;;;;;;12.17;100.00;98358.00;4987789;28;20042;-67
2023/10/27 11:16:14;;;;;;;25.50;8.13;;;;;;;12.10;100.00;98351.59;4987481;28;20077;-67
2023/10/27 11:18:43;;;;;;;15.60;3.88;;;;;;;12.35;100.00;98359.09;4988613;28;20058;-67
2023/10/27 11:21:17;;;;;;;21.23;4.30;;;;;;;12.13;100.00;98341.69;4992562;28;20042;-67
2023/10/27 11:23:44;;;;;;;16.20;3.95;;;;;;;12.14;100.00;98340.72;4991204;28;20487;-67